Time;durP1;ratioP1;P1;durP2;ratioP2;P2;SDS_P1;SDS_P2;PMS_P1;PMS_P2;Temp;Humidity;BMP_temperature;BMP_pressure;BME280_temperature;BME280_humidity;BME280_pressure;Samples;Min_cycle;Max_cycle;Signal;HPM_P1;HPM_P2
2021/10/12 00:01:51;;;;;;;13.45;4.45;;;;;;;;;;4947050;28;20043;-54
2021/10/12 00:04:16;;;;;;;12.35;4.70;;;;;;;;;;4942836;29;20046;-54
2021/10/12 00:06:42;;;;;;;20.98;5.25;;;;;;;;;;4933373;28;20028;-53
2021/10/12 00:09:07;;;;;;;13.75;5.35;;;;;;;;;;4937779;29;20023;-54
2021/10/12 00:11:32;;;;;;;15.82;5.38;;;;;;;;;;4939868;28;20238;-55
2021/10/12 00:13:57;;;;;;;20.75;5.50;;;;;;;;;;4938988;28;20118;-54
2021/10/12 00:16:23;;;;;;;21.85;5.53;;;;;;;;;;4952667;28;20098;-55
2021/10/12 00:18:48;;;;;;;13.63;5.50;;;;;;;;;;4938507;28;20031;-56
2021/10/12 00:21:13;;;;;;;16.25;6.30;;;;;;;;;;4940581;28;20773;-55
2021/10/12 00:23:39;;;;;;;16.92;5.10;;;;;;;;;;4945046;28;20030;-54
2021/10/12 00:26:04;;;;;;;21.25;5.97;;;;;;;;;;4946366;28;20042;-54
2021/10/12 00:28:30;;;;;;;26.88;6.05;;;;;;;;;;4947188;28;20093;-54
2021/10/12 00:30:56;;;;;;;16.38;6.30;;;;;;;;;;4950057;28;20043;-53
2021/10/12 00:33:21;;;;;;;24.45;6.65;;;;;;;;;;4960001;28;20027;-55
2021/10/12 00:35:46;;;;;;;20.48;6.70;;;;;;;;;;4948397;28;20031;-54
2021/10/12 00:38:11;;;;;;;14.80;6.32;;;;;;;;;;4960362;28;20054;-54
2021/10/12 00:40:37;;;;;;;18.15;6.75;;;;;;;;;;4942005;28;20607;-53
2021/10/12 00:43:02;;;;;;;15.02;6.70;;;;;;;;;;4958547;28;20360;-53
2021/10/12 00:45:28;;;;;;;14.55;5.93;;;;;;;;;;4949328;28;20035;-54
2021/10/12 00:47:59;;;;;;;18.10;6.50;;;;;;;;;;4945184;28;20031;-51
2021/10/12 00:50:25;;;;;;;17.90;5.90;;;;;;;;;;4946789;28;20046;-54
2021/10/12 00:52:50;;;;;;;15.07;6.68;;;;;;;;;;4944501;28;20093;-54
2021/10/12 00:55:16;;;;;;;15.65;6.20;;;;;;;;;;4936215;28;20748;-54
2021/10/12 00:57:41;;;;;;;20.15;5.35;;;;;;;;;;4946559;28;20038;-55
2021/10/12 01:00:06;;;;;;;15.25;5.25;;;;;;;;;;4962480;28;20035;-55
2021/10/12 01:02:31;;;;;;;17.15;5.63;;;;;;;;;;4948696;28;20034;-53
2021/10/12 01:04:57;;;;;;;14.27;5.25;;;;;;;;;;4944568;28;20035;-54
2021/10/12 01:07:22;;;;;;;12.02;5.07;;;;;;;;;;4942590;28;20054;-54
2021/10/12 01:09:47;;;;;;;13.60;4.70;;;;;;;;;;4946230;28;20031;-54
2021/10/12 01:12:12;;;;;;;16.13;4.60;;;;;;;;;;4948119;28;20051;-55
2021/10/12 01:14:38;;;;;;;12.77;5.10;;;;;;;;;;4946445;28;20035;-54
2021/10/12 01:17:03;;;;;;;18.42;6.30;;;;;;;;;;4938909;28;20068;-54
2021/10/12 01:19:28;;;;;;;16.25;5.60;;;;;;;;;;4936332;29;20129;-55
2021/10/12 01:21:53;;;;;;;16.13;5.25;;;;;;;;;;4941228;28;20043;-54
2021/10/12 01:24:18;;;;;;;10.90;4.68;;;;;;;;;;4945051;28;20035;-53
2021/10/12 01:26:44;;;;;;;19.10;4.97;;;;;;;;;;4942991;28;20046;-53
2021/10/12 01:29:11;;;;;;;14.52;5.07;;;;;;;;;;4945523;28;20107;-54
2021/10/12 01:31:36;;;;;;;10.95;5.15;;;;;;;;;;4951647;28;20031;-55
2021/10/12 01:34:09;;;;;;;12.35;5.07;;;;;;;;;;4949278;28;20031;-55
2021/10/12 01:36:34;;;;;;;13.40;5.10;;;;;;;;;;4942918;28;20039;-56
2021/10/12 01:38:59;;;;;;;17.40;4.82;;;;;;;;;;4949306;28;20070;-56
2021/10/12 01:41:25;;;;;;;20.67;5.32;;;;;;;;;;4936224;28;20040;-55
2021/10/12 01:43:50;;;;;;;16.55;5.25;;;;;;;;;;4942299;29;20027;-55
2021/10/12 01:46:15;;;;;;;11.00;4.75;;;;;;;;;;4946693;28;20042;-53
2021/10/12 01:48:40;;;;;;;17.42;4.80;;;;;;;;;;4949510;28;20023;-55
2021/10/12 01:51:05;;;;;;;16.63;5.18;;;;;;;;;;4946431;28;20452;-56
2021/10/12 01:53:31;;;;;;;15.82;4.93;;;;;;;;;;4941979;28;20561;-55
2021/10/12 01:55:56;;;;;;;14.50;4.57;;;;;;;;;;4947068;28;20054;-52
2021/10/12 01:58:21;;;;;;;14.20;4.97;;;;;;;;;;4948673;28;20019;-54
2021/10/12 02:00:46;;;;;;;24.13;5.75;;;;;;;;;;4947972;28;20501;-55
2021/10/12 02:03:12;;;;;;;20.80;5.18;;;;;;;;;;4944448;28;20482;-54
2021/10/12 02:05:37;;;;;;;19.75;4.97;;;;;;;;;;4942397;28;20036;-55
2021/10/12 02:08:02;;;;;;;21.42;5.82;;;;;;;;;;4938967;28;20820;-51
2021/10/12 02:10:27;;;;;;;13.02;4.95;;;;;;;;;;4949190;28;20039;-54
2021/10/12 02:12:53;;;;;;;13.40;4.78;;;;;;;;;;4945038;28;20095;-54
2021/10/12 02:15:18;;;;;;;12.52;4.57;;;;;;;;;;4948941;28;20065;-55
2021/10/12 02:17:43;;;;;;;13.00;4.63;;;;;;;;;;4944283;28;20038;-55
2021/10/12 02:20:09;;;;;;;14.57;5.15;;;;;;;;;;4947334;28;20029;-54
2021/10/12 02:22:34;;;;;;;11.77;5.00;;;;;;;;;;4948986;28;20658;-55
2021/10/12 02:24:59;;;;;;;10.48;4.35;;;;;;;;;;4948141;28;20027;-53
2021/10/12 02:27:24;;;;;;;15.23;4.93;;;;;;;;;;4947965;28;20043;-55
2021/10/12 02:29:50;;;;;;;10.88;4.07;;;;;;;;;;4941672;28;20150;-54
2021/10/12 02:32:15;;;;;;;12.93;4.32;;;;;;;;;;4948401;28;20073;-55
2021/10/12 02:34:40;;;;;;;15.48;4.78;;;;;;;;;;4947847;28;20110;-55
2021/10/12 02:37:06;;;;;;;14.60;4.97;;;;;;;;;;4938291;28;20491;-53
2021/10/12 02:39:31;;;;;;;11.32;4.63;;;;;;;;;;4939040;28;20083;-54
2021/10/12 02:41:56;;;;;;;12.95;5.03;;;;;;;;;;4945645;28;20045;-54
2021/10/12 02:44:21;;;;;;;18.20;4.55;;;;;;;;;;4948623;28;20023;-55
2021/10/12 02:46:47;;;;;;;12.50;4.68;;;;;;;;;;4940805;28;20067;-54
2021/10/12 02:49:12;;;;;;;9.65;4.35;;;;;;;;;;4942254;28;20031;-54
2021/10/12 02:51:37;;;;;;;10.18;4.25;;;;;;;;;;4938877;28;21203;-55
2021/10/12 02:54:02;;;;;;;12.00;4.95;;;;;;;;;;4944142;28;20043;-54
2021/10/12 02:56:27;;;;;;;17.48;5.22;;;;;;;;;;4946496;28;20031;-55
2021/10/12 02:58:53;;;;;;;12.38;5.13;;;;;;;;;;4945556;29;20264;-54
2021/10/12 03:01:18;;;;;;;19.27;5.40;;;;;;;;;;4946200;28;20383;-54
2021/10/12 03:03:43;;;;;;;16.42;5.32;;;;;;;;;;4947312;28;20031;-55
2021/10/12 03:06:08;;;;;;;25.38;5.20;;;;;;;;;;4942337;28;20673;-54
2021/10/12 03:08:33;;;;;;;19.75;5.40;;;;;;;;;;4940471;29;20401;-53
2021/10/12 03:10:59;;;;;;;20.27;4.90;;;;;;;;;;4945166;28;20039;-55
2021/10/12 03:13:24;;;;;;;15.90;4.65;;;;;;;;;;4942762;28;20039;-56
2021/10/12 03:15:49;;;;;;;21.92;5.55;;;;;;;;;;4941401;28;20047;-55
2021/10/12 03:18:14;;;;;;;15.00;5.10;;;;;;;;;;4940415;28;20026;-56
2021/10/12 03:20:40;;;;;;;14.82;5.50;;;;;;;;;;4941058;28;20474;-55
2021/10/12 03:23:05;;;;;;;17.48;6.40;;;;;;;;;;4937819;28;20023;-55
2021/10/12 03:25:30;;;;;;;12.70;5.18;;;;;;;;;;4946696;28;20062;-55
2021/10/12 03:27:55;;;;;;;16.95;4.82;;;;;;;;;;4941075;28;20031;-56
2021/10/12 03:30:21;;;;;;;11.85;5.35;;;;;;;;;;4946593;28;20067;-55
2021/10/12 03:32:46;;;;;;;14.57;5.65;;;;;;;;;;4942385;28;20126;-57
2021/10/12 03:35:14;;;;;;;15.80;5.25;;;;;;;;;;4941403;28;20034;-56
2021/10/12 03:37:40;;;;;;;16.33;5.50;;;;;;;;;;4944004;28;20027;-56
2021/10/12 03:40:05;;;;;;;15.50;4.68;;;;;;;;;;4941429;28;20118;-55
2021/10/12 03:42:30;;;;;;;11.45;4.38;;;;;;;;;;4947500;28;20027;-56
2021/10/12 03:44:56;;;;;;;14.38;5.03;;;;;;;;;;4943123;28;20137;-57
2021/10/12 03:47:21;;;;;;;16.33;4.53;;;;;;;;;;4947026;28;20041;-56
2021/10/12 03:49:46;;;;;;;15.65;4.47;;;;;;;;;;4946812;28;20012;-56
2021/10/12 03:52:11;;;;;;;12.35;5.10;;;;;;;;;;4946327;28;20482;-56
2021/10/12 03:54:36;;;;;;;12.48;4.85;;;;;;;;;;4946941;28;20023;-56
2021/10/12 03:57:02;;;;;;;16.88;5.65;;;;;;;;;;4937102;28;20495;-56
2021/10/12 03:59:27;;;;;;;10.88;5.07;;;;;;;;;;4937452;28;20393;-57
2021/10/12 04:01:52;;;;;;;18.02;5.22;;;;;;;;;;4938388;28;20042;-57
2021/10/12 04:04:17;;;;;;;13.75;4.68;;;;;;;;;;4946581;28;20019;-57
2021/10/12 04:06:43;;;;;;;14.07;5.00;;;;;;;;;;4937349;28;20236;-57
2021/10/12 04:09:08;;;;;;;10.25;4.05;;;;;;;;;;4940478;28;20054;-57
2021/10/12 04:11:33;;;;;;;10.60;4.28;;;;;;;;;;4940813;28;20055;-56
2021/10/12 04:14:00;;;;;;;11.75;4.38;;;;;;;;;;4945197;28;20062;-56
2021/10/12 04:16:25;;;;;;;10.68;4.38;;;;;;;;;;4944301;28;20024;-56
2021/10/12 04:18:50;;;;;;;10.55;4.75;;;;;;;;;;4945771;28;20532;-56
2021/10/12 04:21:16;;;;;;;13.15;4.47;;;;;;;;;;4940643;28;20039;-55
2021/10/12 04:23:41;;;;;;;17.02;5.00;;;;;;;;;;4946773;28;20031;-56
2021/10/12 04:26:09;;;;;;;12.70;4.35;;;;;;;;;;4940871;28;20496;-56
2021/10/12 04:28:34;;;;;;;16.58;4.75;;;;;;;;;;4944777;28;20355;-56
2021/10/12 04:31:00;;;;;;;10.18;4.50;;;;;;;;;;4946219;28;20389;-55
2021/10/12 04:33:25;;;;;;;15.52;4.55;;;;;;;;;;4939886;29;20042;-56
2021/10/12 04:35:50;;;;;;;14.07;4.07;;;;;;;;;;4939604;28;20039;-55
2021/10/12 04:38:15;;;;;;;11.85;5.00;;;;;;;;;;4942992;28;20023;-57
2021/10/12 04:40:41;;;;;;;12.30;4.22;;;;;;;;;;4944005;28;20039;-58
2021/10/12 04:43:07;;;;;;;10.05;4.38;;;;;;;;;;4952253;28;20027;-58
2021/10/12 04:45:32;;;;;;;12.80;4.22;;;;;;;;;;4952269;28;20371;-55
2021/10/12 04:47:57;;;;;;;9.57;3.60;;;;;;;;;;4943933;28;20037;-56
2021/10/12 04:50:22;;;;;;;9.38;3.83;;;;;;;;;;4946693;28;20142;-56
2021/10/12 04:52:47;;;;;;;11.55;4.28;;;;;;;;;;4945927;28;20415;-56
2021/10/12 04:55:13;;;;;;;15.77;5.55;;;;;;;;;;4939381;28;20288;-57
2021/10/12 04:57:38;;;;;;;16.52;6.32;;;;;;;;;;4952930;28;20033;-57
2021/10/12 05:00:04;;;;;;;16.80;5.82;;;;;;;;;;4957460;28;20074;-56
2021/10/12 05:02:29;;;;;;;16.08;5.78;;;;;;;;;;4945863;28;20059;-57
2021/10/12 05:04:54;;;;;;;18.00;5.80;;;;;;;;;;4940303;28;20031;-56
2021/10/12 05:07:19;;;;;;;16.67;4.90;;;;;;;;;;4938647;28;20067;-57
2021/10/12 05:09:45;;;;;;;13.80;5.55;;;;;;;;;;4945385;28;20449;-56
2021/10/12 05:12:10;;;;;;;11.95;5.30;;;;;;;;;;4944102;28;20074;-55
2021/10/12 05:14:35;;;;;;;16.35;5.80;;;;;;;;;;4937245;28;20036;-55
2021/10/12 05:17:02;;;;;;;12.32;5.68;;;;;;;;;;4945717;28;20398;-56
2021/10/12 05:19:27;;;;;;;18.10;6.55;;;;;;;;;;4936481;29;20438;-56
2021/10/12 05:21:53;;;;;;;13.57;5.60;;;;;;;;;;4944293;28;20177;-55
2021/10/12 05:24:18;;;;;;;13.57;5.90;;;;;;;;;;4944978;29;20114;-55
2021/10/12 05:26:43;;;;;;;11.82;6.15;;;;;;;;;;4946063;28;20052;-55
2021/10/12 05:29:12;;;;;;;16.88;5.90;;;;;;;;;;4949541;29;20035;-55
2021/10/12 05:31:38;;;;;;;13.65;5.53;;;;;;;;;;4949336;28;20043;-56
2021/10/12 05:34:03;;;;;;;12.80;5.68;;;;;;;;;;4947168;28;20039;-56
2021/10/12 05:36:28;;;;;;;9.35;5.20;;;;;;;;;;4947405;28;20099;-57
2021/10/12 05:38:54;;;;;;;14.80;5.50;;;;;;;;;;4947050;28;20039;-56
2021/10/12 05:41:19;;;;;;;13.77;5.78;;;;;;;;;;4942781;28;20039;-56
2021/10/12 05:43:46;;;;;;;15.68;6.05;;;;;;;;;;4947518;28;20052;-56
2021/10/12 05:46:11;;;;;;;11.88;5.80;;;;;;;;;;4949052;28;20046;-56
2021/10/12 05:48:36;;;;;;;17.55;6.43;;;;;;;;;;4948302;28;20035;-55
2021/10/12 05:51:02;;;;;;;15.10;6.25;;;;;;;;;;4939212;28;20047;-56
2021/10/12 05:56:11;;;;;;;14.93;6.60;;;;;;;;;;4945668;28;20726;-57
2021/10/12 05:58:44;;;;;;;9.45;5.32;;;;;;;;;;4949141;28;20046;-55
2021/10/12 06:01:09;;;;;;;16.45;7.20;;;;;;;;;;4950886;28;20040;-56
2021/10/12 06:03:34;;;;;;;12.55;7.07;;;;;;;;;;4947592;28;20034;-56
2021/10/12 06:06:00;;;;;;;17.98;6.55;;;;;;;;;;4941728;28;20296;-55
2021/10/12 06:08:27;;;;;;;15.88;6.38;;;;;;;;;;4937610;29;20524;-57
2021/10/12 06:10:52;;;;;;;14.27;6.40;;;;;;;;;;4948474;28;20419;-55
2021/10/12 06:13:18;;;;;;;13.05;6.55;;;;;;;;;;4941588;28;20047;-56
2021/10/12 06:15:43;;;;;;;20.02;6.75;;;;;;;;;;4943769;28;20043;-57
2021/10/12 06:18:08;;;;;;;18.10;6.63;;;;;;;;;;4947708;28;20113;-56
2021/10/12 06:20:33;;;;;;;14.55;7.43;;;;;;;;;;4945265;28;20070;-55
2021/10/12 06:22:59;;;;;;;15.95;6.90;;;;;;;;;;4945005;28;20494;-54
2021/10/12 06:25:24;;;;;;;17.02;7.20;;;;;;;;;;4948441;28;20490;-55
2021/10/12 06:27:50;;;;;;;12.68;6.82;;;;;;;;;;4943153;28;20044;-57
2021/10/12 06:30:15;;;;;;;16.58;6.50;;;;;;;;;;4941510;28;20102;-57
2021/10/12 06:32:40;;;;;;;16.42;7.70;;;;;;;;;;4956687;28;20569;-56
2021/10/12 06:35:06;;;;;;;11.55;6.30;;;;;;;;;;4942500;28;20050;-56
2021/10/12 06:37:31;;;;;;;15.95;6.85;;;;;;;;;;4942929;29;20035;-57
2021/10/12 06:39:56;;;;;;;17.70;7.25;;;;;;;;;;4944343;28;20035;-56
2021/10/12 06:42:22;;;;;;;15.45;7.65;;;;;;;;;;4943219;28;20483;-56
2021/10/12 06:44:47;;;;;;;17.67;6.35;;;;;;;;;;4955228;28;20114;-55
2021/10/12 06:47:12;;;;;;;14.65;6.50;;;;;;;;;;4939396;28;20656;-55
2021/10/12 06:49:37;;;;;;;16.30;6.60;;;;;;;;;;4943382;28;20728;-54
2021/10/12 06:52:03;;;;;;;13.27;5.70;;;;;;;;;;4943403;28;20536;-55
2021/10/12 06:54:28;;;;;;;12.93;6.10;;;;;;;;;;4944672;28;20046;-55
2021/10/12 06:56:57;;;;;;;12.80;5.78;;;;;;;;;;4942583;28;20154;-54
2021/10/12 06:59:24;;;;;;;15.25;6.15;;;;;;;;;;4946766;29;20051;-55
2021/10/12 07:01:49;;;;;;;14.30;7.72;;;;;;;;;;4946429;28;20040;-55
2021/10/12 07:04:14;;;;;;;16.52;6.90;;;;;;;;;;4946281;28;20324;-56
2021/10/12 07:06:39;;;;;;;14.95;6.70;;;;;;;;;;4947032;28;20530;-54
2021/10/12 07:09:04;;;;;;;16.38;6.53;;;;;;;;;;4947878;28;20674;-55
2021/10/12 07:11:30;;;;;;;15.10;6.00;;;;;;;;;;4943242;28;20055;-56
2021/10/12 07:13:55;;;;;;;17.75;5.97;;;;;;;;;;4940768;28;20074;-55
2021/10/12 07:16:21;;;;;;;18.85;6.25;;;;;;;;;;4946373;28;20821;-54
2021/10/12 07:18:46;;;;;;;12.35;5.82;;;;;;;;;;4945714;28;20056;-56
2021/10/12 07:21:12;;;;;;;11.75;5.85;;;;;;;;;;4946053;28;20494;-55
2021/10/12 07:23:37;;;;;;;10.43;4.47;;;;;;;;;;4942616;28;20474;-55
2021/10/12 07:26:02;;;;;;;11.90;5.65;;;;;;;;;;4948377;28;20046;-55
2021/10/12 07:28:28;;;;;;;16.60;6.40;;;;;;;;;;4947104;28;20027;-56
2021/10/12 07:30:53;;;;;;;12.75;5.82;;;;;;;;;;4945002;28;20841;-55
2021/10/12 07:33:18;;;;;;;17.25;5.45;;;;;;;;;;4941771;28;20039;-55
2021/10/12 07:35:44;;;;;;;12.77;5.80;;;;;;;;;;4941459;28;20486;-56
2021/10/12 07:38:11;;;;;;;16.77;5.72;;;;;;;;;;4946528;28;20039;-55
2021/10/12 07:40:38;;;;;;;12.27;4.80;;;;;;;;;;4940785;28;20062;-56
2021/10/12 07:43:04;;;;;;;13.77;5.40;;;;;;;;;;4944571;28;20115;-55
2021/10/12 07:45:29;;;;;;;20.67;6.40;;;;;;;;;;4946980;28;20130;-56
2021/10/12 07:47:56;;;;;;;13.18;7.03;;;;;;;;;;4946397;28;20062;-56
2021/10/12 07:50:21;;;;;;;13.95;5.53;;;;;;;;;;4943887;28;20035;-57
2021/10/12 07:52:46;;;;;;;12.20;4.95;;;;;;;;;;4959732;28;20063;-57
2021/10/12 07:55:26;;;;;;;10.20;4.55;;;;;;;;;;4940473;28;20026;-57
2021/10/12 07:57:51;;;;;;;13.48;4.72;;;;;;;;;;4946564;28;20039;-56
2021/10/12 08:00:16;;;;;;;10.30;4.93;;;;;;;;;;4958055;28;20351;-56
2021/10/12 08:02:41;;;;;;;14.70;4.60;;;;;;;;;;4947310;28;20572;-56
2021/10/12 08:05:07;;;;;;;18.83;5.75;;;;;;;;;;4941508;28;20038;-55
2021/10/12 08:07:32;;;;;;;9.52;4.75;;;;;;;;;;4948848;28;20501;-57
2021/10/12 08:09:58;;;;;;;11.20;5.30;;;;;;;;;;4945063;29;20034;-57
2021/10/12 08:12:24;;;;;;;14.90;5.50;;;;;;;;;;4946613;28;20146;-57
2021/10/12 08:14:54;;;;;;;14.10;5.10;;;;;;;;;;4947332;28;20478;-56
2021/10/12 08:17:19;;;;;;;10.40;4.90;;;;;;;;;;4944609;28;20046;-57
2021/10/12 08:19:44;;;;;;;19.33;5.53;;;;;;;;;;4937008;28;20023;-56
2021/10/12 08:22:10;;;;;;;13.90;5.55;;;;;;;;;;4944985;28;20116;-56
2021/10/12 08:24:35;;;;;;;15.18;5.57;;;;;;;;;;4945261;28;20458;-55
2021/10/12 08:27:00;;;;;;;10.10;4.32;;;;;;;;;;4940500;28;20070;-57
2021/10/12 08:29:27;;;;;;;12.75;5.28;;;;;;;;;;4938980;29;20094;-56
2021/10/12 08:31:52;;;;;;;16.10;5.22;;;;;;;;;;4946377;28;20042;-56
2021/10/12 08:34:17;;;;;;;12.60;5.25;;;;;;;;;;4945453;28;20346;-56
2021/10/12 08:36:46;;;;;;;12.10;4.75;;;;;;;;;;4943431;28;20321;-58
2021/10/12 08:39:11;;;;;;;13.70;4.78;;;;;;;;;;4939892;28;20163;-55
2021/10/12 08:41:40;;;;;;;11.73;4.22;;;;;;;;;;4940045;28;20118;-56
2021/10/12 08:44:07;;;;;;;17.23;5.63;;;;;;;;;;4946238;28;20023;-58
2021/10/12 08:46:32;;;;;;;8.10;3.50;;;;;;;;;;4946345;28;20359;-56
2021/10/12 08:48:58;;;;;;;15.05;4.43;;;;;;;;;;4945566;28;20498;-56
2021/10/12 08:51:23;;;;;;;12.20;4.15;;;;;;;;;;4949908;28;20513;-56
2021/10/12 08:53:48;;;;;;;14.60;4.40;;;;;;;;;;4948529;28;20036;-56
2021/10/12 08:56:13;;;;;;;16.75;4.63;;;;;;;;;;4949525;28;20501;-56
2021/10/12 08:58:39;;;;;;;10.07;4.15;;;;;;;;;;4944838;28;20470;-57
2021/10/12 09:01:05;;;;;;;11.80;4.32;;;;;;;;;;4949628;28;20380;-56
2021/10/12 09:06:11;;;;;;;13.73;3.72;;;;;;;;;;4947370;28;20505;-55
2021/10/12 09:08:39;;;;;;;9.52;3.40;;;;;;;;;;4950473;28;20020;-56
2021/10/12 09:11:05;;;;;;;8.48;3.45;;;;;;;;;;4949151;28;20658;-55
2021/10/12 09:14:07;;;;;;;8.40;3.90;;;;;;;;;;4949847;28;20046;-55
2021/10/12 09:16:38;;;;;;;10.73;3.70;;;;;;;;;;4941354;28;20039;-55
2021/10/12 09:19:04;;;;;;;15.23;4.50;;;;;;;;;;4947134;28;20031;-57
2021/10/12 09:21:29;;;;;;;10.48;4.03;;;;;;;;;;4948969;28;20822;-58
2021/10/12 09:24:11;;;;;;;9.32;4.20;;;;;;;;;;4948354;28;20023;-58
2021/10/12 09:26:43;;;;;;;12.05;4.80;;;;;;;;;;4943799;28;20427;-57
2021/10/12 09:29:18;;;;;;;14.95;4.57;;;;;;;;;;4943566;28;20118;-58
2021/10/12 09:31:46;;;;;;;10.35;4.80;;;;;;;;;;4943280;28;21156;-55
2021/10/12 09:34:12;;;;;;;13.88;5.20;;;;;;;;;;4950905;28;20039;-57
2021/10/12 09:36:43;;;;;;;13.55;5.43;;;;;;;;;;4943465;28;20585;-58
2021/10/12 09:39:14;;;;;;;14.95;5.47;;;;;;;;;;4942837;28;20070;-56
2021/10/12 09:41:39;;;;;;;;;;;;;;;;;;4937373;28;20036;-57
2021/10/12 09:44:14;;;;;;;9.55;5.10;;;;;;;;;;4946872;28;19920;-57
2021/10/12 09:46:41;;;;;;;9.02;4.60;;;;;;;;;;4947822;28;20297;-56
2021/10/12 09:49:25;;;;;;;9.55;4.82;;;;;;;;;;4941237;28;20695;-56
2021/10/12 09:52:06;;;;;;;13.55;4.93;;;;;;;;;;4953906;28;20129;-57
2021/10/12 09:54:35;;;;;;;7.88;4.10;;;;;;;;;;4941796;28;20062;-57
2021/10/12 09:57:01;;;;;;;9.40;3.60;;;;;;;;;;4943812;28;20035;-57
2021/10/12 09:59:27;;;;;;;8.35;3.55;;;;;;;;;;4949007;28;20054;-58
2021/10/12 10:01:53;;;;;;;6.22;3.30;;;;;;;;;;4947776;28;20067;-55
2021/10/12 10:04:19;;;;;;;8.27;3.00;;;;;;;;;;4942256;28;20435;-55
2021/10/12 10:06:44;;;;;;;8.38;3.05;;;;;;;;;;4948116;28;20125;-58
2021/10/12 10:09:11;;;;;;;9.25;3.70;;;;;;;;;;4941127;28;20441;-55
2021/10/12 10:11:38;;;;;;;7.03;4.15;;;;;;;;;;4944014;28;20497;-58
2021/10/12 10:14:05;;;;;;;5.90;3.15;;;;;;;;;;4948291;28;20095;-58
2021/10/12 10:16:31;;;;;;;4.85;2.90;;;;;;;;;;4944386;28;20494;-55
2021/10/12 10:18:56;;;;;;;6.05;3.35;;;;;;;;;;4943700;29;20032;-58
2021/10/12 10:21:21;;;;;;;6.22;2.90;;;;;;;;;;4946254;28;20062;-57
2021/10/12 10:24:01;;;;;;;6.55;3.10;;;;;;;;;;4947317;29;20027;-57
2021/10/12 10:26:30;;;;;;;7.47;3.55;;;;;;;;;;4938390;28;20414;-57
2021/10/12 10:29:16;;;;;;;5.38;2.83;;;;;;;;;;4941162;28;20086;-57
2021/10/12 10:31:41;;;;;;;6.00;3.35;;;;;;;;;;4937199;28;20059;-56
2021/10/12 10:34:25;;;;;;;6.78;3.00;;;;;;;;;;4944087;28;20130;-55
2021/10/12 10:37:07;;;;;;;9.13;3.30;;;;;;;;;;4943099;28;20039;-57
2021/10/12 10:39:36;;;;;;;7.38;3.85;;;;;;;;;;4935932;29;20458;-59
2021/10/12 10:42:02;;;;;;;10.18;4.35;;;;;;;;;;4945046;28;20047;-56
2021/10/12 10:44:51;;;;;;;7.43;3.20;;;;;;;;;;4945651;28;20112;-57
2021/10/12 10:47:35;;;;;;;10.00;3.33;;;;;;;;;;4941234;28;20040;-58
2021/10/12 10:50:27;;;;;;;8.15;3.35;;;;;;;;;;4946228;28;20020;-59
2021/10/12 10:52:53;;;;;;;9.65;3.58;;;;;;;;;;4937190;28;20482;-59
2021/10/12 10:55:19;;;;;;;11.60;3.90;;;;;;;;;;4940961;28;20055;-57
2021/10/12 10:58:02;;;;;;;8.57;3.78;;;;;;;;;;4936060;28;20055;-57
2021/10/12 11:00:28;;;;;;;9.35;3.70;;;;;;;;;;4939934;28;20035;-57
2021/10/12 11:02:54;;;;;;;8.23;4.00;;;;;;;;;;4945078;28;20426;-58
2021/10/12 11:05:32;;;;;;;6.85;3.83;;;;;;;;;;4943278;28;20019;-57
2021/10/12 11:08:07;;;;;;;8.45;4.05;;;;;;;;;;4941036;28;20042;-58
2021/10/12 11:10:32;;;;;;;8.25;3.90;;;;;;;;;;4945760;28;20042;-58
2021/10/12 11:12:57;;;;;;;9.68;4.00;;;;;;;;;;4946594;28;20374;-57
2021/10/12 11:15:22;;;;;;;26.58;16.08;;;;;;;;;;4946385;28;20039;-57
2021/10/12 11:18:04;;;;;;;61.53;35.97;;;;;;;;;;4939028;28;20027;-58
2021/10/12 11:20:37;;;;;;;54.10;33.13;;;;;;;;;;4935593;28;20518;-57
2021/10/12 11:23:02;;;;;;;17.45;10.20;;;;;;;;;;4939432;28;20047;-57
2021/10/12 11:25:31;;;;;;;16.73;10.43;;;;;;;;;;4937091;28;20462;-57
2021/10/12 11:28:04;;;;;;;11.88;8.75;;;;;;;;;;4951301;28;20033;-56
2021/10/12 11:30:31;;;;;;;7.72;3.63;;;;;;;;;;4943886;28;20035;-56
2021/10/12 11:32:56;;;;;;;8.38;3.70;;;;;;;;;;4947154;28;20082;-58
2021/10/12 11:35:22;;;;;;;6.30;3.42;;;;;;;;;;4940954;28;20043;-56
2021/10/12 11:37:51;;;;;;;5.47;3.40;;;;;;;;;;4942890;28;20074;-57
2021/10/12 11:40:16;;;;;;;5.10;3.35;;;;;;;;;;4937934;28;20109;-56
2021/10/12 11:42:44;;;;;;;8.85;4.45;;;;;;;;;;4940038;28;20676;-57
2021/10/12 11:45:09;;;;;;;9.30;4.43;;;;;;;;;;4946985;28;20066;-57
2021/10/12 11:47:34;;;;;;;11.07;5.78;;;;;;;;;;4947493;28;20031;-57
2021/10/12 11:50:09;;;;;;;14.45;8.50;;;;;;;;;;4944357;28;20037;-56
2021/10/12 11:52:34;;;;;;;8.75;4.97;;;;;;;;;;4941196;28;20090;-55
2021/10/12 11:55:09;;;;;;;11.10;4.90;;;;;;;;;;4936442;28;20397;-56
2021/10/12 11:57:35;;;;;;;11.85;4.90;;;;;;;;;;4958903;28;20421;-58
2021/10/12 12:00:00;;;;;;;7.53;3.88;;;;;;;;;;4946960;28;20024;-58
2021/10/12 12:02:31;;;;;;;10.98;6.20;;;;;;;;;;4937035;28;20038;-57
2021/10/12 12:05:00;;;;;;;9.00;6.38;;;;;;;;;;4938845;29;20038;-56
2021/10/12 12:07:28;;;;;;;14.20;5.93;;;;;;;;;;4947221;28;20425;-58
2021/10/12 12:09:53;;;;;;;10.75;4.53;;;;;;;;;;4955038;28;20461;-57
2021/10/12 12:12:18;;;;;;;8.35;4.03;;;;;;;;;;4941963;28;20101;-57
2021/10/12 12:14:44;;;;;;;10.85;4.10;;;;;;;;;;4945232;28;20124;-57
2021/10/12 12:17:10;;;;;;;10.73;4.28;;;;;;;;;;4943931;28;20053;-57
2021/10/12 12:19:41;;;;;;;9.65;4.70;;;;;;;;;;4946127;28;20019;-57
2021/10/12 12:22:17;;;;;;;7.53;4.97;;;;;;;;;;4946592;28;20036;-57
2021/10/12 12:24:52;;;;;;;8.40;4.20;;;;;;;;;;4944946;28;20078;-57
2021/10/12 12:27:17;;;;;;;7.82;3.72;;;;;;;;;;4944501;28;20130;-57
2021/10/12 12:29:42;;;;;;;7.90;3.65;;;;;;;;;;4946507;28;20134;-56
2021/10/12 12:32:11;;;;;;;8.32;3.90;;;;;;;;;;4941969;28;20154;-56
2021/10/12 12:34:38;;;;;;;8.25;4.40;;;;;;;;;;4945418;28;20027;-58
2021/10/12 12:37:05;;;;;;;7.75;4.20;;;;;;;;;;4946161;28;20498;-58
2021/10/12 12:39:34;;;;;;;5.78;4.60;;;;;;;;;;4939372;28;20032;-57
2021/10/12 12:41:59;;;;;;;9.63;3.70;;;;;;;;;;4942127;28;20401;-58
2021/10/12 12:44:25;;;;;;;5.85;3.33;;;;;;;;;;4956644;28;20022;-58
2021/10/12 12:46:54;;;;;;;8.90;5.00;;;;;;;;;;4942073;28;20043;-57
2021/10/12 12:49:19;;;;;;;6.18;4.13;;;;;;;;;;4945414;28;20034;-56
2021/10/12 12:51:47;;;;;;;8.70;3.95;;;;;;;;;;4943647;28;20047;-56
2021/10/12 12:54:31;;;;;;;8.52;3.72;;;;;;;;;;4936126;28;20035;-56
2021/10/12 12:57:04;;;;;;;5.70;3.92;;;;;;;;;;4945820;28;20046;-56
2021/10/12 12:59:29;;;;;;;8.77;3.40;;;;;;;;;;4946784;28;20027;-56
2021/10/12 13:01:54;;;;;;;5.97;3.05;;;;;;;;;;4940377;28;20417;-56
2021/10/12 13:04:21;;;;;;;10.30;3.70;;;;;;;;;;4946377;29;20679;-56
2021/10/12 13:06:46;;;;;;;5.65;2.92;;;;;;;;;;4933838;28;20072;-56
2021/10/12 13:09:11;;;;;;;6.47;3.25;;;;;;;;;;4943871;28;20564;-56
2021/10/12 13:11:39;;;;;;;5.70;3.70;;;;;;;;;;4946013;28;20653;-57
2021/10/12 13:14:04;;;;;;;5.68;3.30;;;;;;;;;;4940473;28;20047;-56
2021/10/12 13:16:29;;;;;;;6.28;3.83;;;;;;;;;;4942197;28;20362;-56
2021/10/12 13:18:54;;;;;;;4.85;2.85;;;;;;;;;;4939821;28;20114;-57
2021/10/12 13:21:20;;;;;;;5.30;2.90;;;;;;;;;;4939170;28;20178;-56
2021/10/12 13:23:46;;;;;;;9.77;3.10;;;;;;;;;;4943252;28;20071;-56
2021/10/12 13:26:11;;;;;;;9.13;4.43;;;;;;;;;;4945880;28;20058;-56
2021/10/12 13:28:36;;;;;;;9.38;5.88;;;;;;;;;;4940279;28;20015;-56
2021/10/12 13:31:01;;;;;;;7.68;5.40;;;;;;;;;;4946077;28;20047;-57
2021/10/12 13:33:27;;;;;;;10.05;6.78;;;;;;;;;;4945785;28;20043;-57
2021/10/12 13:35:52;;;;;;;12.88;6.45;;;;;;;;;;4938360;28;20058;-56
2021/10/12 13:38:18;;;;;;;13.35;10.98;;;;;;;;;;4948414;29;20150;-56
2021/10/12 13:40:43;;;;;;;11.55;5.43;;;;;;;;;;4959507;28;20043;-56
2021/10/12 13:43:08;;;;;;;11.98;7.18;;;;;;;;;;4947409;29;20326;-56
2021/10/12 13:45:33;;;;;;;11.05;8.07;;;;;;;;;;4956159;28;20434;-56
2021/10/12 13:47:59;;;;;;;15.75;8.65;;;;;;;;;;4949050;28;20027;-56
2021/10/12 13:50:24;;;;;;;10.80;5.82;;;;;;;;;;4948462;28;20036;-56
2021/10/12 13:52:49;;;;;;;11.73;7.70;;;;;;;;;;4945652;28;20047;-57
2021/10/12 13:55:15;;;;;;;8.25;4.32;;;;;;;;;;4938409;28;20032;-57
2021/10/12 13:57:40;;;;;;;11.38;4.75;;;;;;;;;;4940910;28;20493;-57
2021/10/12 14:00:07;;;;;;;14.95;7.30;;;;;;;;;;4948715;28;20398;-57
2021/10/12 14:02:32;;;;;;;12.05;4.80;;;;;;;;;;4949916;28;20007;-58
2021/10/12 14:04:57;;;;;;;6.38;2.75;;;;;;;;;;4948624;28;20543;-57
2021/10/12 14:07:22;;;;;;;4.72;2.30;;;;;;;;;;4946822;28;20039;-57
2021/10/12 14:09:49;;;;;;;3.30;1.80;;;;;;;;;;4949103;28;20034;-57
2021/10/12 14:12:17;;;;;;;4.13;2.00;;;;;;;;;;4941734;28;20055;-57
2021/10/12 14:14:43;;;;;;;4.45;1.85;;;;;;;;;;4940988;28;20032;-57
2021/10/12 14:17:08;;;;;;;4.90;2.22;;;;;;;;;;4940552;28;20170;-57
2021/10/12 14:19:33;;;;;;;10.20;3.50;;;;;;;;;;4951567;28;20023;-61
2021/10/12 14:21:58;;;;;;;8.25;3.45;;;;;;;;;;4943855;28;20047;-61
2021/10/12 14:24:24;;;;;;;3.95;2.25;;;;;;;;;;4944573;28;20032;-60
2021/10/12 14:26:49;;;;;;;3.67;1.95;;;;;;;;;;4944032;28;20047;-61
2021/10/12 14:29:14;;;;;;;3.67;1.70;;;;;;;;;;4942764;28;20047;-60
2021/10/12 14:31:39;;;;;;;4.50;1.70;;;;;;;;;;4947725;28;20144;-60
2021/10/12 14:34:05;;;;;;;2.92;1.80;;;;;;;;;;4944018;28;20556;-61
2021/10/12 14:36:30;;;;;;;3.47;1.95;;;;;;;;;;4939258;28;20039;-59